createdAt,value
2018-09-05T00:00:31.733Z,59.74
2018-09-05T00:01:31.816Z,59.76
2018-09-05T00:02:31.684Z,59.73
2018-09-05T00:03:31.803Z,59.77
2018-09-05T00:04:31.697Z,59.74
2018-09-05T00:05:31.694Z,59.75
2018-09-05T00:06:31.893Z,59.75
2018-09-05T00:07:31.808Z,59.72
2018-09-05T00:08:31.734Z,59.77
2018-09-05T00:09:31.783Z,59.8
2018-09-05T00:10:31.720Z,59.79
2018-09-05T00:11:31.667Z,59.77
2018-09-05T00:12:31.763Z,59.78
2018-09-05T00:13:31.870Z,59.76
2018-09-05T00:14:31.796Z,59.76
2018-09-05T00:15:31.695Z,59.78
2018-09-05T00:16:31.827Z,59.81
2018-09-05T00:17:31.791Z,59.8
2018-09-05T00:18:31.752Z,59.81
2018-09-05T00:19:31.681Z,59.8
2018-09-05T00:20:31.721Z,59.77
2018-09-05T00:21:31.916Z,59.81
2018-09-05T00:22:32.001Z,59.8
2018-09-05T00:23:31.839Z,59.78
2018-09-05T00:24:31.715Z,59.81
2018-09-05T00:25:31.806Z,59.84
2018-09-05T00:26:32.054Z,59.78
2018-09-05T00:27:31.804Z,59.85
2018-09-05T00:28:31.803Z,59.82
2018-09-05T00:29:32.013Z,59.82
2018-09-05T00:30:31.927Z,59.88
2018-09-05T00:31:31.735Z,59.85
2018-09-05T00:32:31.852Z,59.85
2018-09-05T00:33:31.760Z,59.85
2018-09-05T00:34:31.808Z,59.87
2018-09-05T00:35:31.827Z,59.85
2018-09-05T00:36:31.835Z,59.85
2018-09-05T00:37:31.772Z,59.82
2018-09-05T00:38:31.707Z,59.85
2018-09-05T00:39:31.775Z,59.86
2018-09-05T00:40:32.268Z,59.9
2018-09-05T00:41:31.730Z,59.82
2018-09-05T00:42:31.744Z,59.92
2018-09-05T00:43:31.900Z,59.8
2018-09-05T00:44:32.023Z,59.82
2018-09-05T00:45:31.963Z,59.86
2018-09-05T00:46:31.747Z,59.88
2018-09-05T00:47:31.846Z,59.87
2018-09-05T00:48:31.723Z,59.85
2018-09-05T00:49:31.833Z,59.86
2018-09-05T00:50:31.885Z,59.86
2018-09-05T00:51:31.741Z,59.91
2018-09-05T00:52:31.882Z,59.88
2018-09-05T00:53:31.850Z,59.87
2018-09-05T00:54:31.905Z,59.89
2018-09-05T00:55:31.803Z,59.87
2018-09-05T00:56:31.644Z,59.85
2018-09-05T00:57:31.747Z,59.86
2018-09-05T00:58:31.695Z,59.91
2018-09-05T00:59:31.977Z,59.9
2018-09-05T01:00:31.612Z,59.93
2018-09-05T01:01:31.830Z,59.89
2018-09-05T01:02:31.815Z,59.9
2018-09-05T01:03:31.758Z,59.91
2018-09-05T01:04:31.756Z,59.88
2018-09-05T01:05:31.784Z,59.88
2018-09-05T01:06:31.689Z,59.92
2018-09-05T01:07:31.733Z,59.86
2018-09-05T01:08:31.764Z,59.87
2018-09-05T01:09:31.803Z,59.9
2018-09-05T01:10:31.736Z,59.97
2018-09-05T01:11:31.818Z,59.86
2018-09-05T01:12:31.808Z,59.91
2018-09-05T01:13:31.819Z,59.92
2018-09-05T01:14:31.855Z,59.87
2018-09-05T01:15:31.730Z,59.91
2018-09-05T01:16:31.726Z,59.91
2018-09-05T01:17:31.695Z,59.88
2018-09-05T01:18:31.727Z,59.93
2018-09-05T01:19:31.684Z,59.88
2018-09-05T01:20:31.746Z,59.9
2018-09-05T01:21:31.759Z,59.89
2018-09-05T01:22:31.602Z,59.92
2018-09-05T01:23:31.739Z,59.86
2018-09-05T01:24:31.671Z,59.85
2018-09-05T01:25:31.759Z,59.9
2018-09-05T01:26:31.781Z,59.88
2018-09-05T01:27:31.745Z,59.88
2018-09-05T01:28:31.704Z,59.88
2018-09-05T01:29:31.805Z,59.85
2018-09-05T01:30:31.703Z,59.85
2018-09-05T01:31:31.767Z,59.88
2018-09-05T01:32:31.706Z,59.81
2018-09-05T01:33:31.718Z,59.89
2018-09-05T01:34:31.998Z,59.87
2018-09-05T01:35:31.821Z,59.87
2018-09-05T01:36:31.798Z,59.89
2018-09-05T01:37:31.907Z,59.87
2018-09-05T01:38:31.814Z,59.88
2018-09-05T01:39:31.891Z,59.92
2018-09-05T01:40:31.688Z,59.86
2018-09-05T01:41:31.580Z,59.87
2018-09-05T01:42:31.819Z,59.9
2018-09-05T01:43:31.753Z,59.86
2018-09-05T01:44:31.609Z,59.88
2018-09-05T01:45:31.675Z,59.9
2018-09-05T01:46:31.731Z,59.86
2018-09-05T01:47:32.314Z,59.88
2018-09-05T01:48:31.829Z,59.9
2018-09-05T01:49:31.661Z,59.92
2018-09-05T01:50:31.557Z,59.89
2018-09-05T01:51:31.837Z,59.9
2018-09-05T01:52:31.816Z,59.91
2018-09-05T01:53:31.747Z,59.92
2018-09-05T01:54:31.757Z,59.89
2018-09-05T01:55:31.750Z,59.9
2018-09-05T01:56:31.908Z,59.92
2018-09-05T01:57:31.739Z,59.91
2018-09-05T01:58:31.824Z,59.89
2018-09-05T01:59:31.734Z,59.89
2018-09-05T02:00:31.811Z,59.9
2018-09-05T02:01:31.607Z,59.9
2018-09-05T02:02:31.850Z,59.87
2018-09-05T02:03:31.867Z,59.9
2018-09-05T02:04:31.814Z,59.9
2018-09-05T02:05:31.535Z,59.89
2018-09-05T02:06:31.825Z,59.91
2018-09-05T02:07:32.076Z,59.89
2018-09-05T02:08:32.739Z,59.87
2018-09-05T02:09:31.975Z,59.87
2018-09-05T02:10:31.727Z,59.9
2018-09-05T02:11:31.785Z,59.87
2018-09-05T02:12:31.842Z,59.91
2018-09-05T02:13:31.636Z,59.89
2018-09-05T02:14:31.798Z,59.84
2018-09-05T02:15:31.753Z,59.88
2018-09-05T02:16:32.034Z,59.92
2018-09-05T02:17:31.705Z,59.88
2018-09-05T02:18:31.775Z,59.9
2018-09-05T02:19:32.118Z,59.9
2018-09-05T02:20:31.774Z,59.86
2018-09-05T02:21:31.817Z,59.89
2018-09-05T02:22:31.770Z,59.91
2018-09-05T02:23:31.661Z,59.86
2018-09-05T02:24:31.752Z,59.89
2018-09-05T02:25:31.623Z,59.86
2018-09-05T02:26:31.783Z,59.86
2018-09-05T02:27:31.775Z,59.9
2018-09-05T02:28:31.841Z,59.87
2018-09-05T02:29:31.749Z,59.88
2018-09-05T02:30:31.605Z,59.93
2018-09-05T02:31:31.825Z,59.87
2018-09-05T02:32:31.645Z,59.87
2018-09-05T02:33:31.711Z,59.89
2018-09-05T02:34:31.632Z,59.86
2018-09-05T02:35:31.740Z,59.88
2018-09-05T02:36:31.752Z,59.91
2018-09-05T02:37:31.699Z,59.91
2018-09-05T02:38:31.715Z,59.89
2018-09-05T02:39:31.853Z,59.86
2018-09-05T02:40:32.773Z,59.89
2018-09-05T02:41:31.596Z,59.88
2018-09-05T02:42:31.692Z,59.86
2018-09-05T02:43:31.696Z,59.91
2018-09-05T02:44:31.543Z,59.9
2018-09-05T02:45:31.638Z,59.93
2018-09-05T02:46:31.715Z,59.93
2018-09-05T02:47:31.596Z,59.86
2018-09-05T02:48:31.745Z,59.88
2018-09-05T02:49:31.740Z,59.88
2018-09-05T02:50:31.544Z,59.87
2018-09-05T02:51:31.658Z,59.9
2018-09-05T02:52:31.735Z,59.88
2018-09-05T02:53:31.629Z,59.85
2018-09-05T02:54:31.973Z,59.9
2018-09-05T02:55:31.821Z,59.87
2018-09-05T02:56:32.231Z,59.85
2018-09-05T02:57:31.571Z,59.87
2018-09-05T02:58:31.749Z,59.88
2018-09-05T02:59:32.036Z,59.85
2018-09-05T03:00:31.788Z,59.87
2018-09-05T03:01:31.564Z,59.9
2018-09-05T03:02:31.805Z,59.86
2018-09-05T03:03:31.844Z,59.9
2018-09-05T03:04:31.771Z,59.88
2018-09-05T03:05:31.890Z,59.88
2018-09-05T03:06:31.905Z,59.92
2018-09-05T03:07:31.759Z,59.89
2018-09-05T03:08:31.993Z,59.87
2018-09-05T03:09:31.963Z,59.88
2018-09-05T03:10:31.573Z,59.88
2018-09-05T03:11:32.015Z,59.86
2018-09-05T03:12:31.506Z,59.9
2018-09-05T03:13:31.750Z,59.86
2018-09-05T03:14:31.706Z,59.86
2018-09-05T03:15:31.607Z,59.87
2018-09-05T03:16:31.614Z,59.88
2018-09-05T03:17:31.918Z,59.88
2018-09-05T03:18:31.730Z,59.9
2018-09-05T03:19:31.709Z,59.85
2018-09-05T03:20:31.832Z,59.91
2018-09-05T03:21:31.783Z,59.89
2018-09-05T03:22:31.845Z,59.92
2018-09-05T03:23:32.470Z,59.89
2018-09-05T03:24:31.909Z,59.91
2018-09-05T03:25:31.796Z,59.93
2018-09-05T03:26:31.555Z,59.87
2018-09-05T03:27:32.022Z,59.92
2018-09-05T03:28:31.630Z,59.91
2018-09-05T03:29:31.835Z,59.84
2018-09-05T03:30:31.842Z,59.91
2018-09-05T03:31:31.769Z,59.9
2018-09-05T03:32:33.458Z,59.88
2018-09-05T03:33:31.756Z,59.89
2018-09-05T03:34:31.762Z,59.86
2018-09-05T03:35:31.488Z,59.89
2018-09-05T03:36:31.797Z,59.92
2018-09-05T03:37:31.608Z,59.93
2018-09-05T03:38:31.776Z,59.87
2018-09-05T03:39:31.826Z,59.89
2018-09-05T03:40:31.854Z,59.92
2018-09-05T03:41:31.887Z,59.84
2018-09-05T03:42:31.709Z,59.9
2018-09-05T03:43:31.748Z,59.84
2018-09-05T03:44:32.044Z,59.86
2018-09-05T03:45:31.658Z,59.82
2018-09-05T03:46:32.081Z,59.86
2018-09-05T03:47:31.884Z,59.84
2018-09-05T03:48:31.578Z,59.88
2018-09-05T03:49:31.529Z,59.87
2018-09-05T03:50:31.600Z,59.86
2018-09-05T03:51:31.609Z,59.86
2018-09-05T03:52:32.123Z,59.85
2018-09-05T03:53:31.554Z,59.86
2018-09-05T03:54:31.771Z,59.87
2018-09-05T03:55:31.987Z,59.85
2018-09-05T03:56:31.823Z,59.79
2018-09-05T03:57:31.683Z,59.86
2018-09-05T03:58:31.763Z,59.81
2018-09-05T03:59:32.130Z,59.81
2018-09-05T04:00:31.814Z,59.87
2018-09-05T04:01:31.735Z,59.81
2018-09-05T04:02:31.841Z,59.85
2018-09-05T04:03:31.629Z,59.84
2018-09-05T04:04:31.696Z,59.8
2018-09-05T04:05:31.793Z,59.79
2018-09-05T04:06:31.813Z,59.88
2018-09-05T04:07:31.766Z,59.87
2018-09-05T04:08:31.524Z,59.84
2018-09-05T04:09:31.778Z,59.86
2018-09-05T04:10:31.744Z,59.82
2018-09-05T04:11:31.591Z,59.84
2018-09-05T04:12:31.883Z,59.84
2018-09-05T04:13:31.988Z,59.86
2018-09-05T04:14:31.728Z,59.85
2018-09-05T04:15:31.916Z,59.83
2018-09-05T04:16:31.882Z,59.84
2018-09-05T04:17:31.793Z,59.8
2018-09-05T04:18:31.580Z,59.87
2018-09-05T04:19:31.658Z,59.86
2018-09-05T04:20:31.717Z,59.84
2018-09-05T04:21:31.675Z,59.88
2018-09-05T04:22:31.704Z,60.1
2018-09-05T04:23:31.595Z,60.02
2018-09-05T04:24:31.992Z,60.08
2018-09-05T04:25:31.771Z,60.07
2018-09-05T04:26:31.873Z,60.04
2018-09-05T04:27:32.016Z,60.03
2018-09-05T04:28:31.691Z,60.02
2018-09-05T04:29:32.760Z,60
2018-09-05T04:30:31.519Z,59.99
2018-09-05T04:31:31.738Z,60.02
2018-09-05T04:32:31.729Z,60.02
2018-09-05T04:33:31.973Z,60.07
2018-09-05T04:34:31.711Z,60.02
2018-09-05T04:35:31.519Z,60.01
2018-09-05T04:36:31.531Z,60.02
2018-09-05T04:37:31.565Z,60.01
2018-09-05T04:38:31.561Z,59.99
2018-09-05T04:39:31.732Z,59.99
2018-09-05T04:40:31.566Z,59.95
2018-09-05T04:41:31.520Z,59.91
2018-09-05T04:42:31.535Z,59.92
2018-09-05T04:43:31.527Z,59.92
2018-09-05T04:44:31.547Z,59.91
2018-09-05T04:45:32.106Z,59.92
2018-09-05T04:46:31.748Z,59.93
2018-09-05T04:47:31.761Z,59.87
2018-09-05T04:48:31.795Z,59.93
2018-09-05T04:49:31.944Z,59.9
2018-09-05T04:50:31.668Z,59.91
2018-09-05T04:51:31.764Z,59.9
2018-09-05T04:52:32.751Z,59.91
2018-09-05T04:53:31.682Z,59.89
2018-09-05T04:54:31.725Z,59.88
2018-09-05T04:55:31.752Z,59.91
2018-09-05T04:56:31.836Z,59.89
2018-09-05T04:57:31.874Z,59.92
2018-09-05T04:58:32.571Z,59.92
2018-09-05T04:59:31.973Z,59.9
2018-09-05T05:00:31.580Z,59.86
2018-09-05T05:01:31.625Z,59.89
2018-09-05T05:02:31.914Z,59.87
2018-09-05T05:03:31.555Z,59.85
2018-09-05T05:04:32.194Z,59.9
2018-09-05T05:05:32.507Z,59.86
2018-09-05T05:06:31.656Z,59.91
2018-09-05T05:07:31.623Z,59.87
2018-09-05T05:08:31.787Z,59.88
2018-09-05T05:09:31.598Z,59.91
2018-09-05T05:10:31.743Z,59.87
2018-09-05T05:11:31.564Z,59.87
2018-09-05T05:12:32.477Z,59.86
2018-09-05T05:13:31.690Z,59.85
2018-09-05T05:14:31.614Z,59.81
2018-09-05T05:15:31.803Z,59.83
2018-09-05T05:16:31.547Z,59.82
2018-09-05T05:17:31.831Z,59.83
2018-09-05T05:18:31.875Z,59.87
2018-09-05T05:19:31.824Z,59.87
2018-09-05T05:20:31.605Z,59.82
2018-09-05T05:21:31.786Z,59.87
2018-09-05T05:22:31.696Z,59.86
2018-09-05T05:23:32.031Z,59.84
2018-09-05T05:24:31.782Z,59.85
2018-09-05T05:25:31.808Z,59.86
2018-09-05T05:26:31.763Z,59.81
2018-09-05T05:27:32.025Z,59.84
2018-09-05T05:28:31.551Z,59.87
2018-09-05T05:29:31.738Z,59.85
2018-09-05T05:30:31.566Z,59.84
2018-09-05T05:31:31.699Z,59.84
2018-09-05T05:32:32.833Z,59.84
2018-09-05T05:33:31.855Z,59.84
2018-09-05T05:34:31.717Z,59.87
2018-09-05T05:35:31.872Z,59.8
2018-09-05T05:36:31.900Z,59.83
2018-09-05T05:37:31.503Z,59.86
2018-09-05T05:38:31.759Z,59.79
2018-09-05T05:39:31.724Z,59.86
2018-09-05T05:40:31.703Z,59.8
2018-09-05T05:41:31.949Z,59.81
2018-09-05T05:42:32.141Z,59.82
2018-09-05T05:43:31.536Z,59.84
2018-09-05T05:44:31.611Z,59.81
2018-09-05T05:45:31.694Z,59.87
2018-09-05T05:46:31.630Z,59.86
2018-09-05T05:47:31.838Z,59.82
2018-09-05T05:48:31.530Z,59.85
2018-09-05T05:49:31.491Z,59.8
2018-09-05T05:50:31.660Z,59.8
2018-09-05T05:51:31.739Z,59.84
2018-09-05T05:52:31.560Z,59.82
2018-09-05T05:53:31.787Z,59.79
2018-09-05T05:54:31.555Z,59.85
2018-09-05T05:55:31.502Z,59.85
2018-09-05T05:56:31.496Z,59.82
2018-09-05T05:57:31.841Z,59.8
2018-09-05T05:58:31.599Z,59.86
2018-09-05T05:59:31.497Z,59.85
2018-09-05T06:00:31.597Z,59.81
2018-09-05T06:01:31.733Z,59.78
2018-09-05T06:02:31.769Z,59.78
2018-09-05T06:03:31.765Z,59.82
2018-09-05T06:04:31.648Z,59.82
2018-09-05T06:05:31.588Z,59.8
2018-09-05T06:06:31.922Z,59.87
2018-09-05T06:07:31.726Z,59.85
2018-09-05T06:08:31.858Z,59.82
2018-09-05T06:09:31.697Z,59.82
2018-09-05T06:10:31.774Z,59.86
2018-09-05T06:11:31.815Z,59.81
2018-09-05T06:12:31.516Z,59.84
2018-09-05T06:13:31.778Z,59.81
2018-09-05T06:14:31.569Z,59.85
2018-09-05T06:15:32.456Z,59.84
2018-09-05T06:16:31.899Z,59.83
2018-09-05T06:17:32.071Z,59.82
2018-09-05T06:18:31.775Z,59.83
2018-09-05T06:19:31.685Z,59.85
2018-09-05T06:20:31.579Z,59.8
2018-09-05T06:21:31.847Z,59.79
2018-09-05T06:22:31.853Z,59.83
2018-09-05T06:23:31.655Z,59.79
2018-09-05T06:24:31.821Z,59.86
2018-09-05T06:25:31.846Z,59.86
2018-09-05T06:26:31.841Z,59.86
2018-09-05T06:27:31.503Z,59.81
2018-09-05T06:28:31.871Z,59.83
2018-09-05T06:29:32.101Z,59.82
2018-09-05T06:30:33.586Z,59.87
2018-09-05T06:31:31.756Z,59.83
2018-09-05T06:32:31.548Z,59.82
2018-09-05T06:33:31.791Z,59.8
2018-09-05T06:34:31.812Z,59.84
2018-09-05T06:35:31.943Z,59.81
2018-09-05T06:36:31.611Z,59.82
2018-09-05T06:37:31.718Z,59.84
2018-09-05T06:38:32.003Z,59.84
2018-09-05T06:39:31.649Z,59.84
2018-09-05T06:40:31.701Z,59.81
2018-09-05T06:41:31.671Z,59.81
2018-09-05T06:42:31.644Z,59.82
2018-09-05T06:43:31.907Z,59.8
2018-09-05T06:44:31.738Z,59.83
2018-09-05T06:45:33.440Z,59.81
2018-09-05T06:46:31.575Z,59.78
2018-09-05T06:47:32.155Z,59.75
2018-09-05T06:48:31.596Z,59.8
2018-09-05T06:49:31.786Z,59.78
2018-09-05T06:50:31.808Z,59.78
2018-09-05T06:51:32.934Z,59.83
2018-09-05T06:52:31.721Z,59.79
2018-09-05T06:53:31.829Z,59.78
2018-09-05T06:54:31.805Z,59.8
2018-09-05T06:55:31.829Z,59.78
2018-09-05T06:56:31.910Z,59.73
2018-09-05T06:57:31.746Z,59.8
2018-09-05T06:58:31.732Z,59.79
2018-09-05T06:59:31.566Z,59.79
2018-09-05T07:00:31.744Z,59.81
2018-09-05T07:01:31.821Z,59.81
2018-09-05T07:02:31.759Z,59.77
2018-09-05T07:03:32.356Z,59.79
2018-09-05T07:04:31.743Z,59.8
2018-09-05T07:05:31.506Z,59.79
2018-09-05T07:06:31.466Z,59.77
2018-09-05T07:07:31.509Z,59.79
2018-09-05T07:08:31.709Z,59.82
2018-09-05T07:09:31.507Z,59.84
2018-09-05T07:10:31.515Z,59.83
2018-09-05T07:11:31.992Z,59.84
2018-09-05T07:12:31.798Z,59.87
2018-09-05T07:13:31.551Z,59.84
2018-09-05T07:14:32.382Z,59.8
2018-09-05T07:15:31.723Z,59.85
2018-09-05T07:16:31.688Z,59.84
2018-09-05T07:17:32.028Z,59.81
2018-09-05T07:18:31.658Z,59.87
2018-09-05T07:19:31.727Z,59.92
2018-09-05T07:20:31.509Z,59.92
2018-09-05T07:21:32.554Z,59.95
2018-09-05T07:22:31.814Z,59.92
2018-09-05T07:23:31.491Z,59.91
2018-09-05T07:24:31.616Z,59.91
2018-09-05T07:25:31.593Z,59.95
2018-09-05T07:26:31.877Z,59.94
2018-09-05T07:27:32.261Z,59.96
2018-09-05T07:28:31.829Z,59.98
2018-09-05T07:29:31.727Z,59.97
2018-09-05T07:30:32.990Z,59.96
2018-09-05T07:31:31.934Z,59.98
2018-09-05T07:32:31.523Z,59.96
2018-09-05T07:33:31.858Z,59.93
2018-09-05T07:34:31.737Z,59.96
2018-09-05T07:35:32.179Z,59.98
2018-09-05T07:36:31.709Z,59.98
2018-09-05T07:37:31.758Z,59.96
2018-09-05T07:38:31.844Z,59.96
2018-09-05T07:39:31.622Z,59.95
2018-09-05T07:40:31.795Z,59.95
2018-09-05T07:41:31.794Z,59.95
2018-09-05T07:42:31.698Z,59.98
2018-09-05T07:43:31.754Z,59.94
2018-09-05T07:44:31.752Z,59.9
2018-09-05T07:45:31.675Z,59.96
2018-09-05T07:46:31.934Z,59.95
2018-09-05T07:47:31.479Z,59.93
2018-09-05T07:48:31.621Z,59.93
2018-09-05T07:49:31.703Z,59.93
2018-09-05T07:50:31.658Z,59.88
2018-09-05T07:51:31.840Z,59.91
2018-09-05T07:52:31.589Z,59.91
2018-09-05T07:53:31.546Z,59.84
2018-09-05T07:54:31.759Z,59.92
2018-09-05T07:55:31.993Z,59.9
2018-09-05T07:56:31.786Z,59.82
2018-09-05T07:57:31.854Z,59.89
2018-09-05T07:58:31.798Z,59.92
2018-09-05T07:59:31.644Z,59.86
2018-09-05T08:00:31.755Z,59.86
2018-09-05T08:01:31.550Z,59.85
2018-09-05T08:02:31.878Z,59.82
2018-09-05T08:03:31.767Z,59.87
2018-09-05T08:04:31.673Z,59.85
2018-09-05T08:05:31.557Z,59.82
2018-09-05T08:06:31.524Z,59.85
2018-09-05T08:07:31.508Z,59.82
2018-09-05T08:08:32.408Z,59.8
2018-09-05T08:09:31.712Z,59.87
2018-09-05T08:10:31.631Z,59.86
2018-09-05T08:11:31.585Z,59.85
2018-09-05T08:12:31.755Z,59.86
2018-09-05T08:13:31.818Z,59.85
2018-09-05T08:14:31.520Z,59.81
2018-09-05T08:15:31.853Z,59.8
2018-09-05T08:16:31.523Z,59.83
2018-09-05T08:17:31.715Z,59.81
2018-09-05T08:18:31.567Z,59.82
2018-09-05T08:19:31.806Z,59.82
2018-09-05T08:20:31.752Z,59.8
2018-09-05T08:21:31.863Z,59.82
2018-09-05T08:22:31.747Z,59.8
2018-09-05T08:23:31.554Z,59.8
2018-09-05T08:24:32.278Z,59.82
2018-09-05T08:25:31.608Z,59.82
2018-09-05T08:26:31.456Z,59.76
2018-09-05T08:27:31.649Z,59.81
2018-09-05T08:28:31.654Z,59.78
2018-09-05T08:29:31.702Z,59.81
2018-09-05T08:30:31.576Z,59.83
2018-09-05T08:31:31.724Z,59.81
2018-09-05T08:32:31.642Z,59.75
2018-09-05T08:33:31.559Z,59.8
2018-09-05T08:34:31.820Z,59.81
2018-09-05T08:35:35.012Z,59.77
2018-09-05T08:36:34.340Z,59.82
2018-09-05T08:37:34.523Z,59.81
2018-09-05T08:38:33.642Z,59.78
2018-09-05T08:39:31.801Z,59.8
2018-09-05T08:40:31.521Z,59.79
2018-09-05T08:41:33.009Z,59.71
2018-09-05T08:42:31.767Z,59.8
2018-09-05T08:43:32.010Z,59.77
2018-09-05T08:44:32.699Z,59.73
2018-09-05T08:45:33.910Z,59.74
2018-09-05T08:46:31.756Z,59.8
2018-09-05T08:47:33.135Z,59.74
2018-09-05T08:48:32.133Z,59.75
2018-09-05T08:49:31.794Z,59.77
2018-09-05T08:50:31.620Z,59.75
2018-09-05T08:51:31.880Z,59.79
2018-09-05T08:52:31.811Z,59.76
2018-09-05T08:53:31.803Z,59.74
2018-09-05T08:54:31.620Z,59.8
2018-09-05T08:55:31.534Z,59.75
2018-09-05T08:56:31.661Z,59.74
2018-09-05T08:57:31.616Z,59.78
2018-09-05T08:58:31.619Z,59.77
2018-09-05T08:59:31.719Z,59.74
2018-09-05T09:00:31.853Z,59.74
2018-09-05T09:01:32.173Z,59.75
2018-09-05T09:02:31.510Z,59.76
2018-09-05T09:03:31.831Z,59.78
2018-09-05T09:04:31.994Z,59.77
2018-09-05T09:05:31.807Z,59.77
2018-09-05T09:06:31.815Z,59.82
2018-09-05T09:07:31.863Z,59.78
2018-09-05T09:08:31.597Z,59.75
2018-09-05T09:09:31.568Z,59.79
2018-09-05T09:10:31.519Z,59.8
2018-09-05T09:11:32.223Z,59.74
2018-09-05T09:12:31.805Z,59.78
2018-09-05T09:13:32.461Z,59.81
2018-09-05T09:14:31.596Z,59.77
2018-09-05T09:15:31.577Z,59.84
2018-09-05T09:16:31.964Z,59.78
2018-09-05T09:17:31.647Z,59.77
2018-09-05T09:18:31.762Z,59.83
2018-09-05T09:19:31.705Z,59.76
2018-09-05T09:20:31.735Z,59.69
2018-09-05T09:21:31.617Z,59.78
2018-09-05T09:22:31.505Z,59.78
2018-09-05T09:23:31.737Z,59.73
2018-09-05T09:24:31.655Z,59.78
2018-09-05T09:25:31.707Z,59.75
2018-09-05T09:26:31.525Z,59.71
2018-09-05T09:27:31.696Z,59.78
2018-09-05T09:28:31.835Z,59.76
2018-09-05T09:29:31.577Z,59.75
2018-09-05T09:30:31.759Z,59.79
2018-09-05T09:31:31.408Z,59.8
2018-09-05T09:32:31.553Z,59.76
2018-09-05T09:33:32.180Z,59.75
2018-09-05T09:34:31.445Z,59.76
2018-09-05T09:35:31.836Z,59.73
2018-09-05T09:36:31.780Z,59.79
2018-09-05T09:37:31.720Z,59.73
2018-09-05T09:38:31.829Z,59.73
2018-09-05T09:39:31.762Z,59.75
2018-09-05T09:40:31.835Z,59.75
2018-09-05T09:41:31.496Z,59.69
2018-09-05T09:42:32.164Z,59.75
2018-09-05T09:43:31.785Z,59.7
2018-09-05T09:44:31.721Z,59.69
2018-09-05T09:45:31.433Z,59.72
2018-09-05T09:46:32.100Z,59.71
2018-09-05T09:47:31.673Z,59.69
2018-09-05T09:48:31.617Z,59.69
2018-09-05T09:49:31.655Z,59.7
2018-09-05T09:50:31.685Z,59.68
2018-09-05T09:51:31.727Z,59.76
2018-09-05T09:52:31.515Z,59.72
2018-09-05T09:53:32.230Z,59.71
2018-09-05T09:54:31.709Z,59.72
2018-09-05T09:55:31.880Z,59.7
2018-09-05T09:56:31.859Z,59.71
2018-09-05T09:57:31.447Z,59.7
2018-09-05T09:58:31.790Z,59.69
2018-09-05T09:59:31.747Z,59.64
2018-09-05T10:00:31.784Z,59.7
2018-09-05T10:01:31.612Z,59.71
2018-09-05T10:02:31.556Z,59.68
2018-09-05T10:03:33.269Z,59.69
2018-09-05T10:04:31.802Z,59.73
2018-09-05T10:05:31.622Z,59.66
2018-09-05T10:06:31.631Z,59.73
2018-09-05T10:07:31.457Z,59.7
2018-09-05T10:08:31.659Z,59.7
2018-09-05T10:09:32.056Z,59.73
2018-09-05T10:10:31.987Z,59.69
2018-09-05T10:11:31.495Z,59.69
2018-09-05T10:12:31.781Z,59.7
2018-09-05T10:13:31.455Z,59.76
2018-09-05T10:14:31.659Z,59.7
2018-09-05T10:15:31.580Z,59.73
2018-09-05T10:16:31.536Z,59.74
2018-09-05T10:17:31.829Z,59.69
2018-09-05T10:18:31.658Z,59.7
2018-09-05T10:19:31.847Z,59.74
2018-09-05T10:20:31.643Z,59.72
2018-09-05T10:21:31.473Z,59.69
2018-09-05T10:22:31.984Z,59.72
2018-09-05T10:23:31.806Z,59.7
2018-09-05T10:24:31.809Z,59.72
2018-09-05T10:25:31.537Z,59.74
2018-09-05T10:26:31.552Z,59.67
2018-09-05T10:27:31.463Z,59.72
2018-09-05T10:28:31.532Z,59.69
2018-09-05T10:29:31.479Z,59.73
2018-09-05T10:30:31.708Z,59.7
2018-09-05T10:31:31.933Z,59.7
2018-09-05T10:32:31.687Z,59.66
2018-09-05T10:33:31.660Z,59.67
2018-09-05T10:34:31.652Z,59.69
2018-09-05T10:35:31.432Z,59.66
2018-09-05T10:36:31.725Z,59.69
2018-09-05T10:37:31.480Z,59.67
2018-09-05T10:38:31.510Z,59.7
2018-09-05T10:39:31.452Z,59.73
2018-09-05T10:40:31.622Z,59.71
2018-09-05T10:41:31.656Z,59.7
2018-09-05T10:42:31.608Z,59.69
2018-09-05T10:43:32.033Z,59.69
2018-09-05T10:44:31.718Z,59.66
2018-09-05T10:45:31.610Z,59.71
2018-09-05T10:46:31.477Z,59.69
2018-09-05T10:47:31.436Z,59.67
2018-09-05T10:48:31.651Z,59.7
2018-09-05T10:49:31.490Z,59.7
2018-09-05T10:50:31.921Z,59.67
2018-09-05T10:51:32.048Z,59.69
2018-09-05T10:52:31.777Z,59.74
2018-09-05T10:53:31.818Z,59.66
2018-09-05T10:54:32.370Z,59.72
2018-09-05T10:55:31.916Z,59.65
2018-09-05T10:56:31.563Z,59.65
2018-09-05T10:57:31.428Z,59.68
2018-09-05T10:58:31.701Z,59.69
2018-09-05T10:59:31.475Z,59.67
2018-09-05T11:00:31.444Z,59.71
2018-09-05T11:01:31.869Z,59.72
2018-09-05T11:02:31.705Z,59.67
2018-09-05T11:03:31.518Z,59.68
2018-09-05T11:04:31.518Z,59.73
2018-09-05T11:05:31.847Z,59.65
2018-09-05T11:06:31.611Z,59.72
2018-09-05T11:07:34.118Z,59.66
2018-09-05T11:08:31.503Z,59.69
2018-09-05T11:09:31.798Z,59.69
2018-09-05T11:10:32.633Z,59.69
2018-09-05T11:11:31.664Z,59.65
2018-09-05T11:12:31.530Z,59.71
2018-09-05T11:13:31.527Z,59.67
2018-09-05T11:14:31.617Z,59.66
2018-09-05T11:15:31.530Z,59.68
2018-09-05T11:16:31.790Z,59.7
2018-09-05T11:17:31.424Z,59.65
2018-09-05T11:18:31.662Z,59.72
2018-09-05T11:19:31.999Z,59.69
2018-09-05T11:20:31.721Z,59.65
2018-09-05T11:21:31.830Z,59.7
2018-09-05T11:22:31.525Z,59.68
2018-09-05T11:23:31.887Z,59.67
2018-09-05T11:24:31.495Z,59.7
2018-09-05T11:25:31.479Z,59.68
2018-09-05T11:26:31.413Z,59.67
2018-09-05T11:27:31.927Z,59.68
2018-09-05T11:28:31.585Z,59.68
2018-09-05T11:29:31.427Z,59.64
2018-09-05T11:30:31.808Z,59.69
2018-09-05T11:31:31.550Z,59.68
2018-09-05T11:32:31.448Z,59.64
2018-09-05T11:33:31.552Z,59.65
2018-09-05T11:34:31.503Z,59.66
2018-09-05T11:35:31.660Z,59.64
2018-09-05T11:36:31.512Z,59.67
2018-09-05T11:37:31.870Z,59.7
2018-09-05T11:38:31.460Z,59.67
2018-09-05T11:39:31.626Z,59.73
2018-09-05T11:40:31.451Z,59.67
2018-09-05T11:41:31.727Z,59.69
2018-09-05T11:42:31.462Z,59.7
2018-09-05T11:43:31.519Z,59.7
2018-09-05T11:44:31.376Z,59.7
2018-09-05T11:45:31.515Z,59.7
2018-09-05T11:46:31.592Z,59.69
2018-09-05T11:47:31.705Z,59.69
2018-09-05T11:48:31.760Z,59.7
2018-09-05T11:49:31.547Z,59.69
2018-09-05T11:50:31.743Z,59.66
2018-09-05T11:51:31.575Z,59.73
2018-09-05T11:52:32.084Z,59.71
2018-09-05T11:53:31.764Z,59.68
2018-09-05T11:54:31.623Z,59.7
2018-09-05T11:55:31.508Z,59.67
2018-09-05T11:56:31.842Z,59.68
2018-09-05T11:57:31.744Z,59.7
2018-09-05T11:58:31.463Z,59.68
2018-09-05T11:59:31.599Z,59.68
2018-09-05T12:00:31.376Z,59.69
2018-09-05T12:01:31.525Z,59.7
2018-09-05T12:02:31.554Z,59.69
2018-09-05T12:03:31.468Z,59.72
2018-09-05T12:04:31.749Z,59.7
2018-09-05T12:05:31.401Z,59.66
2018-09-05T12:06:31.501Z,59.69
2018-09-05T12:07:31.951Z,59.72
2018-09-05T12:08:31.846Z,59.66
2018-09-05T12:09:31.781Z,59.7
2018-09-05T12:10:31.588Z,59.69
2018-09-05T12:11:32.131Z,59.64
2018-09-05T12:12:31.537Z,59.68
2018-09-05T12:13:31.468Z,59.66
2018-09-05T12:14:31.864Z,59.67
2018-09-05T12:15:32.094Z,59.7
2018-09-05T12:16:31.446Z,59.69
2018-09-05T12:17:31.682Z,59.69
2018-09-05T12:18:31.673Z,59.7
2018-09-05T12:19:31.392Z,59.69
2018-09-05T12:20:31.875Z,59.71
2018-09-05T12:21:31.584Z,59.67
2018-09-05T12:22:31.792Z,59.69
2018-09-05T12:23:31.579Z,59.66
2018-09-05T12:24:31.650Z,59.67
2018-09-05T12:25:31.592Z,59.7
2018-09-05T12:26:31.766Z,59.71
2018-09-05T12:27:31.691Z,59.86
2018-09-05T12:28:31.622Z,59.84
2018-09-05T12:29:31.479Z,59.9
2018-09-05T12:30:31.469Z,60.08
2018-09-05T12:31:31.820Z,60.02
2018-09-05T12:32:31.528Z,59.98
2018-09-05T12:33:31.573Z,59.95
2018-09-05T12:34:31.443Z,59.97
2018-09-05T12:35:31.728Z,60.02
2018-09-05T12:36:31.357Z,60.2
2018-09-05T12:37:31.822Z,60.12
2018-09-05T12:38:31.475Z,60.08
2018-09-05T12:39:31.492Z,60.14
2018-09-05T12:40:31.664Z,60.8
2018-09-05T12:41:31.584Z,60.26
2018-09-05T12:42:31.700Z,60.34
2018-09-05T12:43:31.526Z,60.16
2018-09-05T12:44:31.547Z,60.07
2018-09-05T12:45:31.757Z,60.02
2018-09-05T12:46:31.401Z,60.04
2018-09-05T12:47:31.769Z,60.03
2018-09-05T12:48:31.323Z,59.94
2018-09-05T12:49:31.607Z,59.94
2018-09-05T12:50:31.519Z,59.98
2018-09-05T12:51:31.533Z,60.02
2018-09-05T12:52:31.499Z,60.02
2018-09-05T12:53:31.427Z,60.06
2018-09-05T12:54:31.389Z,60.03
2018-09-05T12:55:31.432Z,60.01
2018-09-05T12:56:31.951Z,60.04